Time;durP1;ratioP1;P1;durP2;ratioP2;P2;SDS_P1;SDS_P2;PMS_P1;PMS_P2;Temp;Humidity;BMP_temperature;BMP_pressure;BME280_temperature;BME280_humidity;BME280_pressure;Samples;Min_cycle;Max_cycle;Signal;HPM_P1;HPM_P2
2022/07/05 00:00:09;;;;;;;2.38;1.92;;;;;;;22.10;nan;-24430.88;4947661;28;20185;-59
2022/07/05 00:02:34;;;;;;;2.03;1.70;;;;;;;22.16;nan;-24432.69;4946711;28;20657;-60
2022/07/05 00:05:00;;;;;;;2.55;1.98;;;;;;;21.92;nan;-24426.03;4951098;28;20213;-61
2022/07/05 00:07:26;;;;;;;2.13;1.92;;;;;;;22.13;nan;-24431.72;4948485;28;20185;-61
2022/07/05 00:09:57;;;;;;;2.35;1.80;;;;;;;22.12;nan;-24431.44;4952852;28;20200;-61
2022/07/05 00:12:28;;;;;;;2.65;1.92;;;;;;;21.86;nan;-24424.38;4944723;28;20440;-60
2022/07/05 00:14:54;;;;;;;3.50;2.05;;;;;;;21.83;nan;-24423.53;4941938;28;20212;-61
2022/07/05 00:17:20;;;;;;;2.42;1.88;;;;;;;21.74;nan;-24421.19;4944126;28;20197;-62
2022/07/05 00:19:46;;;;;;;2.72;2.03;;;;;;;21.95;nan;-24426.88;4942347;28;20264;-60
2022/07/05 00:22:11;;;;;;;2.17;1.80;;;;;;;21.77;nan;-24421.88;4945918;28;20804;-61
2022/07/05 00:24:37;;;;;;;11.25;2.10;;;;;;;22.09;nan;-24430.75;4947767;28;20208;-61
2022/07/05 00:27:02;;;;;;;2.45;1.77;;;;;;;22.06;nan;-24429.91;4944336;28;20186;-59
2022/07/05 00:29:28;;;;;;;2.88;2.03;;;;;;;18.97;nan;-24345.09;4947145;28;20209;-59
2022/07/05 00:31:54;;;;;;;2.67;1.90;;;;;;;21.58;nan;-24416.75;4937783;28;21000;-61
2022/07/05 00:34:19;;;;;;;2.45;1.67;;;;;;;21.46;nan;-24413.44;4942577;28;20755;-60
2022/07/05 00:36:45;;;;;;;2.35;1.60;;;;;;;21.51;nan;-24414.81;4952373;28;20193;-61
2022/07/05 00:39:10;;;;;;;2.88;2.10;;;;;;;21.70;nan;-24420.06;4944901;28;20173;-61
2022/07/05 00:41:36;;;;;;;3.10;2.05;;;;;;;21.65;nan;-24418.69;4942034;28;20185;-61
2022/07/05 00:44:08;;;;;;;3.42;2.10;;;;;;;21.40;nan;-24411.75;4942138;28;20181;-61
2022/07/05 00:46:34;;;;;;;4.40;2.03;;;;;;;21.35;nan;-24410.38;4941880;28;20227;-60
2022/07/05 00:49:01;;;;;;;2.55;2.00;;;;;;;21.53;nan;-24415.50;4940025;28;20221;-60
2022/07/05 00:51:30;;;;;;;3.45;2.03;;;;;;;21.51;nan;-24414.81;4938252;28;20210;-62
2022/07/05 00:53:55;;;;;;;4.80;2.35;;;;;;;21.51;nan;-24414.94;4936348;28;20241;-62
2022/07/05 00:56:23;;;;;;;3.22;2.20;;;;;;;21.63;nan;-24418.00;4937521;28;20232;-60
2022/07/05 00:58:49;;;;;;;2.97;2.10;;;;;;;21.51;nan;-24414.81;4948656;28;20693;-61
2022/07/05 01:01:16;;;;;;;3.13;2.17;;;;;;;21.39;nan;-24411.50;4939445;28;20272;-61
2022/07/05 01:03:42;;;;;;;2.38;1.92;;;;;;;21.03;nan;-24401.63;4946364;28;20293;-61
2022/07/05 01:06:09;;;;;;;2.90;1.77;;;;;;;21.30;nan;-24409.00;4945808;28;20211;-61
2022/07/05 01:08:41;;;;;;;2.53;2.00;;;;;;;21.48;nan;-24413.97;4942716;28;20239;-61
2022/07/05 01:11:07;;;;;;;2.25;1.80;;;;;;;21.23;nan;-24407.19;4944429;28;20205;-62
2022/07/05 01:13:33;;;;;;;2.45;1.75;;;;;;;21.14;nan;-24404.69;4946376;28;20656;-61
2022/07/05 01:15:59;;;;;;;2.42;1.90;;;;;;;21.01;nan;-24401.22;4946126;28;20641;-61
2022/07/05 01:18:25;;;;;;;4.18;1.70;;;;;;;20.60;nan;-24389.84;4943114;28;20190;-62
2022/07/05 01:20:51;;;;;;;3.35;2.28;;;;;;;20.95;nan;-24399.56;4949270;28;20193;-61
2022/07/05 01:23:20;;;;;;;3.42;2.00;;;;;;;20.82;nan;-24395.94;4947131;28;20272;-61
2022/07/05 01:25:48;;;;;;;3.42;2.28;;;;;;;21.08;nan;-24403.16;4942347;28;20630;-62
2022/07/05 01:28:14;;;;;;;3.00;1.80;;;;;;;20.73;nan;-24393.59;4941331;28;20194;-60
2022/07/05 01:30:41;;;;;;;4.47;2.33;;;;;;;20.45;nan;-24385.81;4948976;28;20185;-59
2022/07/05 01:33:08;;;;;;;2.85;2.10;;;;;;;20.63;nan;-24390.69;4948541;28;20194;-61
2022/07/05 01:35:35;;;;;;;3.88;2.17;;;;;;;20.28;nan;-24381.22;4953902;28;20200;-62
2022/07/05 01:38:01;;;;;;;3.30;1.90;;;;;;;20.43;nan;-24385.28;4954885;28;20192;-61
2022/07/05 01:40:27;;;;;;;3.88;2.35;;;;;;;20.13;nan;-24377.06;4951490;28;20567;-60
2022/07/05 01:42:53;;;;;;;2.65;2.13;;;;;;;20.06;nan;-24375.00;4946424;28;20193;-60
2022/07/05 01:48:06;;;;;;;3.28;2.50;;;;;;;20.26;nan;-24380.69;4939007;28;21905;-61
2022/07/05 01:50:37;;;;;;;4.57;2.40;;;;;;;20.13;nan;-24377.06;4935701;28;20181;-60
2022/07/05 01:53:03;;;;;;;3.97;2.20;;;;;;;20.01;nan;-24373.72;4939645;28;20189;-60
2022/07/05 01:55:29;;;;;;;3.78;2.35;;;;;;;19.97;nan;-24372.50;4946301;28;20566;-62
2022/07/05 01:57:54;;;;;;;3.20;2.10;;;;;;;20.20;nan;-24378.88;4944872;28;20184;-60
2022/07/05 02:00:20;;;;;;;4.38;2.00;;;;;;;20.05;nan;-24374.84;4939858;28;20189;-60
2022/07/05 02:02:46;;;;;;;2.20;1.90;;;;;;;20.40;nan;-24384.44;4946189;28;20189;-59
2022/07/05 02:05:13;;;;;;;3.50;2.38;;;;;;;20.18;nan;-24378.47;4950813;28;20205;-61
2022/07/05 02:07:48;;;;;;;4.22;2.47;;;;;;;19.98;nan;-24372.75;4945003;28;20204;-61
2022/07/05 02:10:14;;;;;;;4.20;2.42;;;;;;;20.20;nan;-24378.88;4944711;28;20204;-61
2022/07/05 02:12:39;;;;;;;3.50;2.20;;;;;;;20.01;nan;-24373.72;4946656;28;20265;-60
2022/07/05 02:15:05;;;;;;;5.18;2.85;;;;;;;20.16;nan;-24377.91;4948682;28;20186;-61
2022/07/05 02:17:31;;;;;;;2.67;2.22;;;;;;;19.72;nan;-24365.81;4949543;28;20193;-60
2022/07/05 02:19:57;;;;;;;5.88;2.90;;;;;;;19.67;nan;-24364.28;4952694;28;20229;-60
2022/07/05 02:22:23;;;;;;;4.30;3.05;;;;;;;19.75;nan;-24366.50;4944965;28;20206;-60
2022/07/05 02:24:48;;;;;;;4.82;2.90;;;;;;;19.38;nan;-24356.34;4944716;28;20217;-60
2022/07/05 02:27:14;;;;;;;5.53;2.75;;;;;;;19.58;nan;-24361.91;4945300;28;20181;-60
2022/07/05 02:29:39;;;;;;;5.50;2.70;;;;;;;19.64;nan;-24363.44;4947306;28;20181;-59
2022/07/05 02:32:05;;;;;;;3.95;2.33;;;;;;;19.48;nan;-24359.00;4941480;28;20752;-61
2022/07/05 02:34:30;;;;;;;2.65;2.08;;;;;;;19.18;nan;-24350.78;4942803;28;20654;-59
2022/07/05 02:36:56;;;;;;;3.30;2.50;;;;;;;19.49;nan;-24359.28;4948479;28;20324;-61
2022/07/05 02:39:21;;;;;;;3.20;2.40;;;;;;;19.21;nan;-24351.63;4949117;28;20194;-59
2022/07/05 02:41:47;;;;;;;4.32;2.72;;;;;;;19.49;nan;-24359.28;4951685;28;20188;-61
2022/07/05 02:44:12;;;;;;;3.10;2.20;;;;;;;19.30;nan;-24354.28;4947510;28;20269;-59
2022/07/05 02:46:38;;;;;;;3.38;2.53;;;;;;;19.17;nan;-24350.66;4947021;28;20202;-60
2022/07/05 02:49:03;;;;;;;4.50;2.90;;;;;;;19.23;nan;-24352.19;4947184;28;20196;-61
2022/07/05 02:51:29;;;;;;;3.00;2.35;;;;;;;19.03;nan;-24346.63;4947467;28;20213;-61
2022/07/05 02:53:54;;;;;;;5.68;2.90;;;;;;;19.36;nan;-24355.81;4948473;28;20557;-59
2022/07/05 02:56:20;;;;;;;4.45;2.88;;;;;;;19.23;nan;-24352.31;4949536;28;20801;-62
2022/07/05 02:58:45;;;;;;;7.35;2.63;;;;;;;19.33;nan;-24355.09;4940506;28;20186;-60
2022/07/05 03:01:11;;;;;;;3.83;2.65;;;;;;;19.53;nan;-24360.38;4941200;28;20217;-60
2022/07/05 03:03:36;;;;;;;3.72;2.55;;;;;;;19.49;nan;-24359.28;4936650;28;20276;-60
2022/07/05 03:06:02;;;;;;;4.07;2.92;;;;;;;15.86;nan;-24259.38;4945277;28;20212;-59
2022/07/05 03:08:27;;;;;;;4.10;2.80;;;;;;;19.54;nan;-24360.81;4942582;28;20262;-60
2022/07/05 03:10:53;;;;;;;3.78;2.80;;;;;;;19.71;nan;-24365.41;4944388;28;20190;-60
2022/07/05 03:13:18;;;;;;;4.40;2.70;;;;;;;20.37;nan;-24383.47;4942964;28;20195;-60
2022/07/05 03:15:44;;;;;;;4.78;3.30;;;;;;;20.80;nan;-24395.41;4943387;28;20285;-59
2022/07/05 03:18:09;;;;;;;4.55;3.10;;;;;;;20.92;nan;-24398.59;4944072;28;20654;-60
2022/07/05 03:20:35;;;;;;;3.60;2.83;;;;;;;21.17;nan;-24405.38;4945042;28;20252;-60
2022/07/05 03:23:00;;;;;;;4.63;2.92;;;;;;;20.73;nan;-24393.44;4937245;28;20196;-59
2022/07/05 03:25:26;;;;;;;4.75;3.40;;;;;;;20.48;nan;-24386.66;4940865;28;20264;-62
2022/07/05 03:27:52;;;;;;;4.00;2.70;;;;;;;21.49;nan;-24414.41;4937819;28;20661;-60
2022/07/05 03:30:17;;;;;;;4.50;3.15;;;;;;;21.90;nan;-24425.63;4939888;28;20185;-59
2022/07/05 03:32:42;;;;;;;5.45;3.22;;;;;;;22.34;nan;-24437.66;4942756;28;20277;-64
2022/07/05 03:35:08;;;;;;;7.28;3.45;;;;;;;23.37;nan;-24465.72;4936126;28;20193;-61
2022/07/05 03:37:34;;;;;;;4.22;2.80;;;;;;;24.29;nan;-24490.84;4937131;28;20177;-61
2022/07/05 03:39:59;;;;;;;4.85;3.10;;;;;;;24.53;nan;-24497.31;4936643;28;20197;-60
2022/07/05 03:42:24;;;;;;;3.50;2.55;;;;;;;25.58;nan;-24525.81;4941502;28;20558;-61
2022/07/05 03:44:50;;;;;;;3.72;2.63;;;;;;;26.23;nan;-24543.69;4935934;28;20301;-61
2022/07/05 03:47:15;;;;;;;3.92;2.45;;;;;;;27.25;nan;-24571.28;4947166;28;20645;-60
2022/07/05 03:49:41;;;;;;;4.03;2.70;;;;;;;27.73;nan;-24584.16;4940293;28;20190;-59
2022/07/05 03:52:06;;;;;;;4.10;2.72;;;;;;;28.35;nan;-24601.16;4927152;28;20190;-60
2022/07/05 03:54:32;;;;;;;5.20;3.03;;;;;;;28.89;nan;-24615.66;4923999;28;20600;-61
2022/07/05 03:56:57;;;;;;;3.70;2.80;;;;;;;29.49;nan;-24631.75;4933124;28;21384;-61
2022/07/05 03:59:22;;;;;;;3.80;2.55;;;;;;;29.60;nan;-24634.91;4925805;28;20196;-61
2022/07/05 04:01:48;;;;;;;3.35;2.40;;;;;;;30.17;nan;-24650.19;4926823;28;20209;-61
2022/07/05 04:04:13;;;;;;;3.28;2.35;;;;;;;30.31;nan;-24654.00;4932022;28;20209;-61
2022/07/05 04:06:39;;;;;;;4.35;3.00;;;;;;;30.53;nan;-24660.00;4932563;28;20220;-60
2022/07/05 04:09:04;;;;;;;4.57;2.83;;;;;;;30.45;nan;-24657.66;4936224;28;20290;-60
2022/07/05 04:11:30;;;;;;;3.25;2.40;;;;;;;30.79;nan;-24666.94;4941237;28;20755;-61
2022/07/05 04:13:56;;;;;;;3.25;2.70;;;;;;;31.13;nan;-24676.19;4934235;28;20193;-62
2022/07/05 04:16:22;;;;;;;5.25;2.90;;;;;;;31.66;nan;-24690.34;4931071;28;20227;-61
2022/07/05 04:18:47;;;;;;;3.75;2.58;;;;;;;32.41;nan;-24710.56;4941077;28;20286;-61
2022/07/05 04:21:12;;;;;;;6.07;2.60;;;;;;;32.77;nan;-24720.06;4938040;28;20182;-61
2022/07/05 04:23:38;;;;;;;4.07;2.65;;;;;;;32.52;nan;-24713.28;4937427;28;20197;-61
2022/07/05 04:26:03;;;;;;;4.70;2.50;;;;;;;32.64;nan;-24716.69;4937011;28;20223;-61
2022/07/05 04:28:32;;;;;;;6.10;2.72;;;;;;;32.72;nan;-24718.84;4937144;28;20194;-60
2022/07/05 04:30:57;;;;;;;3.10;2.33;;;;;;;32.23;nan;-24705.69;4933073;28;20260;-61
2022/07/05 04:33:23;;;;;;;3.67;2.70;;;;;;;32.15;nan;-24703.38;4938080;28;20192;-62
2022/07/05 04:35:49;;;;;;;5.45;2.67;;;;;;;32.64;nan;-24716.56;4940435;28;20661;-60
2022/07/05 04:38:14;;;;;;;3.85;2.80;;;;;;;32.69;nan;-24718.03;4937947;28;20176;-61
2022/07/05 04:40:40;;;;;;;4.43;2.80;;;;;;;32.59;nan;-24715.31;4941065;28;20223;-61
2022/07/05 04:43:06;;;;;;;5.05;2.83;;;;;;;32.41;nan;-24710.56;4937401;28;20212;-62
2022/07/05 04:45:32;;;;;;;4.10;2.80;;;;;;;32.92;nan;-24724.00;4929914;28;20204;-64
2022/07/05 04:47:58;;;;;;;4.30;2.97;;;;;;;32.35;nan;-24708.94;4930737;28;20185;-62
2022/07/05 04:50:23;;;;;;;4.75;2.85;;;;;;;32.57;nan;-24714.78;4932604;28;21895;-63
2022/07/05 04:52:49;;;;;;;5.10;3.40;;;;;;;32.18;nan;-24704.34;4943165;28;20192;-64
2022/07/05 04:55:14;;;;;;;4.57;3.00;;;;;;;32.21;nan;-24705.00;4939970;28;20192;-63
2022/07/05 04:57:41;;;;;;;6.28;2.90;;;;;;;32.28;nan;-24707.03;4941169;28;20180;-62
2022/07/05 05:00:09;;;;;;;4.93;3.00;;;;;;;32.68;nan;-24717.78;4937497;28;20189;-62
2022/07/05 05:02:35;;;;;;;4.40;2.65;;;;;;;32.40;nan;-24710.31;4935197;28;20189;-63
2022/07/05 05:05:01;;;;;;;4.97;3.10;;;;;;;31.83;nan;-24694.97;4955404;28;20220;-65
2022/07/05 05:07:26;;;;;;;4.28;2.80;;;;;;;31.22;nan;-24678.50;4936307;28;20196;-61
2022/07/05 05:09:52;;;;;;;3.95;2.53;;;;;;;30.61;nan;-24662.03;4933655;28;20552;-62
2022/07/05 05:12:18;;;;;;;3.55;2.60;;;;;;;30.38;nan;-24655.91;4937414;28;20273;-63
2022/07/05 05:14:43;;;;;;;3.78;2.63;;;;;;;30.12;nan;-24648.94;4929378;28;20193;-62
2022/07/05 05:17:09;;;;;;;3.85;2.47;;;;;;;29.49;nan;-24631.75;4931490;28;20189;-63
2022/07/05 05:19:34;;;;;;;3.80;2.58;;;;;;;29.68;nan;-24637.09;4933901;28;21362;-64
2022/07/05 05:22:00;;;;;;;5.00;2.88;;;;;;;29.80;nan;-24640.34;4929434;28;20196;-64
2022/07/05 05:24:25;;;;;;;3.70;2.60;;;;;;;29.77;nan;-24639.41;4930452;28;20193;-63
2022/07/05 05:26:51;;;;;;;4.15;2.70;;;;;;;29.87;nan;-24642.13;4924605;28;21112;-63
2022/07/05 05:29:17;;;;;;;3.03;2.35;;;;;;;29.93;nan;-24643.78;4927929;28;20190;-63
2022/07/05 05:31:43;;;;;;;3.05;2.30;;;;;;;30.14;nan;-24649.38;4936583;28;21170;-63
2022/07/05 05:34:09;;;;;;;3.00;2.22;;;;;;;30.36;nan;-24655.34;4930808;28;20189;-63
2022/07/05 05:36:34;;;;;;;3.88;2.38;;;;;;;29.33;nan;-24627.53;4930232;28;20231;-63
2022/07/05 05:39:00;;;;;;;4.05;2.70;;;;;;;29.39;nan;-24629.31;4934672;28;20185;-65
2022/07/05 05:41:25;;;;;;;3.88;2.10;;;;;;;29.72;nan;-24638.19;4925282;28;20273;-63
2022/07/05 05:43:51;;;;;;;3.05;2.60;;;;;;;29.18;nan;-24623.56;4929822;28;20224;-64
2022/07/05 05:46:16;;;;;;;4.72;2.85;;;;;;;28.72;nan;-24611.00;4933425;28;20229;-64
2022/07/05 05:48:41;;;;;;;4.00;2.30;;;;;;;29.05;nan;-24620.00;4932334;28;20653;-61
2022/07/05 05:51:07;;;;;;;2.92;2.30;;;;;;;28.84;nan;-24614.28;4938385;28;20201;-61
2022/07/05 05:53:33;;;;;;;3.58;2.50;;;;;;;27.85;nan;-24587.59;4936204;28;20186;-64
2022/07/05 05:55:59;;;;;;;3.92;2.80;;;;;;;28.00;nan;-24591.69;4933767;28;20189;-62
2022/07/05 05:58:24;;;;;;;3.33;2.30;;;;;;;27.81;nan;-24586.50;4926681;28;20197;-61
2022/07/05 06:00:53;;;;;;;3.35;2.45;;;;;;;27.83;nan;-24587.03;4934715;28;20239;-64
2022/07/05 06:03:20;;;;;;;3.22;2.30;;;;;;;27.25;nan;-24571.41;4937261;28;20182;-60
2022/07/05 06:05:46;;;;;;;3.78;2.60;;;;;;;27.01;nan;-24564.84;4935207;28;21639;-63
2022/07/05 06:08:12;;;;;;;3.60;2.70;;;;;;;27.28;nan;-24571.97;4932502;28;20688;-64
2022/07/05 06:10:38;;;;;;;4.07;2.50;;;;;;;26.97;nan;-24563.59;4941336;28;20225;-63
2022/07/05 06:13:06;;;;;;;4.32;2.70;;;;;;;27.02;nan;-24564.97;4936597;28;21818;-63
2022/07/05 06:15:32;;;;;;;4.45;2.65;;;;;;;26.58;nan;-24553.19;4932268;28;20186;-64
2022/07/05 06:17:58;;;;;;;8.85;2.80;;;;;;;27.17;nan;-24569.09;4939824;28;20704;-64
2022/07/05 06:20:26;;;;;;;3.45;2.90;;;;;;;27.20;nan;-24570.06;4932499;28;20702;-63
2022/07/05 06:22:52;;;;;;;4.30;2.70;;;;;;;26.90;nan;-24561.81;4936326;28;20640;-64
2022/07/05 06:25:18;;;;;;;5.18;2.72;;;;;;;27.43;nan;-24576.06;4935512;28;20244;-63
2022/07/05 06:27:52;;;;;;;4.13;2.75;;;;;;;27.26;nan;-24571.56;4938782;28;20197;-64
2022/07/05 06:30:19;;;;;;;5.43;3.00;;;;;;;27.31;nan;-24572.78;4938048;28;20957;-61
2022/07/05 06:32:47;;;;;;;4.05;3.03;;;;;;;27.17;nan;-24569.22;4936487;28;20598;-62
2022/07/05 06:35:13;;;;;;;4.35;2.67;;;;;;;27.56;nan;-24579.66;4932762;28;20753;-64
2022/07/05 06:37:58;;;;;;;3.25;2.45;;;;;;;27.45;nan;-24576.63;4934764;28;20181;-63
2022/07/05 06:40:31;;;;;;;5.10;2.60;;;;;;;27.80;nan;-24586.22;4935183;28;20223;-62
2022/07/05 06:42:59;;;;;;;3.40;2.60;;;;;;;27.56;nan;-24579.66;4942268;28;20201;-63
2022/07/05 06:45:25;;;;;;;4.75;2.90;;;;;;;27.91;nan;-24589.09;4938574;28;20204;-63
2022/07/05 06:47:56;;;;;;;2.85;2.42;;;;;;;27.78;nan;-24585.69;4935630;28;21283;-62
2022/07/05 06:50:21;;;;;;;3.80;2.45;;;;;;;27.94;nan;-24590.06;4947488;28;21445;-64
2022/07/05 06:52:47;;;;;;;4.03;2.53;;;;;;;27.98;nan;-24591.16;4947797;28;20669;-63
2022/07/05 06:55:12;;;;;;;4.82;2.85;;;;;;;28.12;nan;-24594.84;4946122;28;20177;-61
2022/07/05 06:57:37;;;;;;;4.45;2.75;;;;;;;28.41;nan;-24602.78;4939316;28;20177;-63
2022/07/05 07:00:04;;;;;;;4.18;2.63;;;;;;;28.48;nan;-24604.56;4947286;28;21064;-62
2022/07/05 07:02:30;;;;;;;3.40;2.63;;;;;;;28.42;nan;-24603.06;4944318;28;20601;-62
2022/07/05 07:04:55;;;;;;;3.45;2.60;;;;;;;28.46;nan;-24604.16;4945012;28;20193;-63
2022/07/05 07:10:05;;;;;;;3.78;2.92;;;;;;;28.30;nan;-24599.66;4942314;28;20200;-62
2022/07/05 07:12:31;;;;;;;5.32;2.70;;;;;;;28.51;nan;-24605.38;4939351;28;20194;-63
2022/07/05 07:14:56;;;;;;;3.38;2.70;;;;;;;28.75;nan;-24611.81;4940732;28;20228;-62
2022/07/05 07:17:23;;;;;;;4.35;2.90;;;;;;;28.82;nan;-24613.72;4931847;28;20188;-62
2022/07/05 07:19:48;;;;;;;4.93;2.97;;;;;;;28.99;nan;-24618.50;4941070;28;20221;-62
2022/07/05 07:22:14;;;;;;;3.80;2.42;;;;;;;29.04;nan;-24619.59;4956084;28;20764;-64
2022/07/05 07:24:39;;;;;;;4.20;2.50;;;;;;;28.97;nan;-24617.81;4943545;28;20542;-63
2022/07/05 07:27:06;;;;;;;3.00;2.55;;;;;;;28.56;nan;-24606.75;4957690;28;20206;-61
2022/07/05 07:29:34;;;;;;;4.22;2.95;;;;;;;28.53;nan;-24606.06;4935621;28;21626;-63
2022/07/05 07:32:00;;;;;;;5.88;3.17;;;;;;;28.20;nan;-24596.91;4941447;28;20645;-64
2022/07/05 07:34:27;;;;;;;3.90;3.08;;;;;;;28.41;nan;-24602.66;4943301;28;20240;-62
2022/07/05 07:36:54;;;;;;;3.35;2.85;;;;;;;27.33;nan;-24573.34;4943270;28;20208;-63
2022/07/05 07:39:19;;;;;;;2.90;2.60;;;;;;;29.06;nan;-24620.28;4936757;28;20248;-62
2022/07/05 07:41:45;;;;;;;4.55;2.60;;;;;;;28.93;nan;-24616.88;4940707;28;20224;-62
2022/07/05 07:44:11;;;;;;;3.70;2.67;;;;;;;29.13;nan;-24622.06;4943871;28;20196;-64
2022/07/05 07:46:39;;;;;;;2.78;2.28;;;;;;;28.50;nan;-24605.25;4942847;28;20696;-63
2022/07/05 07:49:04;;;;;;;4.18;2.55;;;;;;;28.09;nan;-24594.16;4941883;28;20170;-61
2022/07/05 07:51:30;;;;;;;2.97;2.30;;;;;;;27.75;nan;-24584.84;4947623;28;20193;-63
2022/07/05 07:53:56;;;;;;;2.92;2.10;;;;;;;27.58;nan;-24580.19;4939289;28;20198;-63
2022/07/05 07:56:21;;;;;;;3.10;2.35;;;;;;;27.78;nan;-24585.69;4940064;28;21652;-60
2022/07/05 07:58:47;;;;;;;3.85;2.65;;;;;;;28.30;nan;-24599.78;4941479;28;20661;-66
2022/07/05 08:01:14;;;;;;;3.45;2.30;;;;;;;28.71;nan;-24610.88;4945031;28;20268;-64
2022/07/05 08:03:40;;;;;;;3.10;2.45;;;;;;;28.47;nan;-24604.44;4941939;28;20303;-64
2022/07/05 08:06:07;;;;;;;3.03;2.65;;;;;;;29.00;nan;-24618.66;4937350;28;20197;-63
2022/07/05 08:08:34;;;;;;;2.78;2.40;;;;;;;28.44;nan;-24603.59;4940649;28;20206;-62
2022/07/05 08:11:00;;;;;;;2.97;2.45;;;;;;;28.86;nan;-24614.81;4939243;28;20264;-63
2022/07/05 08:13:25;;;;;;;3.22;2.40;;;;;;;28.55;nan;-24606.63;4939724;28;20178;-61
2022/07/05 08:15:51;;;;;;;3.58;2.38;;;;;;;28.27;nan;-24598.81;4940314;28;20312;-62
2022/07/05 08:23:45;;;;;;;3.30;2.70;;;;;;;28.65;nan;-24609.06;4941885;28;20190;-63
2022/07/05 08:26:10;;;;;;;3.60;2.38;;;;;;;28.45;nan;-24603.88;4945136;28;20273;-63
2022/07/05 08:28:37;;;;;;;4.07;2.60;;;;;;;29.04;nan;-24619.75;4938420;28;20208;-65
2022/07/05 08:31:02;;;;;;;4.97;2.25;;;;;;;29.56;nan;-24633.81;4938696;28;20189;-64
2022/07/05 08:33:28;;;;;;;2.45;2.22;;;;;;;29.54;nan;-24633.13;4937147;28;20673;-64
2022/07/05 08:35:54;;;;;;;4.68;2.33;;;;;;;29.83;nan;-24641.03;4945038;28;20181;-63
2022/07/05 08:38:19;;;;;;;3.35;2.35;;;;;;;29.77;nan;-24639.53;4940449;28;20185;-63
2022/07/05 08:40:49;;;;;;;3.15;2.35;;;;;;;29.57;nan;-24634.09;4942111;28;20291;-64
2022/07/05 08:43:15;;;;;;;3.58;2.60;;;;;;;29.77;nan;-24639.53;4941046;28;20269;-61
2022/07/05 08:45:43;;;;;;;3.30;2.30;;;;;;;30.01;nan;-24645.94;4942242;28;20209;-63
2022/07/05 08:48:09;;;;;;;3.40;2.45;;;;;;;29.76;nan;-24639.28;4939057;28;20186;-64
2022/07/05 08:50:37;;;;;;;2.58;2.17;;;;;;;29.88;nan;-24642.25;4948214;28;20181;-63
2022/07/05 08:53:03;;;;;;;2.92;2.42;;;;;;;30.35;nan;-24655.09;4946114;28;20209;-63
2022/07/05 08:55:31;;;;;;;2.78;2.20;;;;;;;30.50;nan;-24659.03;4941161;28;21921;-65
2022/07/05 08:57:57;;;;;;;3.20;2.28;;;;;;;30.29;nan;-24653.59;4938393;28;20181;-63
2022/07/05 09:00:22;;;;;;;3.30;2.00;;;;;;;30.45;nan;-24657.81;4937745;28;20180;-63
2022/07/05 09:02:50;;;;;;;3.45;2.10;;;;;;;30.94;nan;-24671.03;4928724;28;20201;-63
2022/07/05 09:05:18;;;;;;;2.53;2.10;;;;;;;30.69;nan;-24664.22;4939337;28;20223;-64
2022/07/05 09:07:57;;;;;;;3.13;2.33;;;;;;;30.58;nan;-24661.34;4955203;28;20642;-64
2022/07/05 09:10:25;;;;;;;2.67;2.15;;;;;;;31.00;nan;-24672.66;4934268;28;20196;-65
2022/07/05 09:12:51;;;;;;;2.75;2.00;;;;;;;31.23;nan;-24678.66;4938635;28;20185;-64
2022/07/05 09:15:16;;;;;;;3.15;2.20;;;;;;;31.47;nan;-24685.16;4938794;28;20885;-62
2022/07/05 09:17:43;;;;;;;3.25;2.10;;;;;;;31.44;nan;-24684.34;4937155;28;20199;-64
2022/07/05 09:20:12;;;;;;;3.50;2.40;;;;;;;31.07;nan;-24674.56;4938694;28;20266;-63
2022/07/05 09:22:54;;;;;;;3.08;2.10;;;;;;;31.50;nan;-24686.13;4928869;28;22095;-63
2022/07/05 09:25:22;;;;;;;4.93;2.20;;;;;;;31.17;nan;-24677.16;4931377;28;20279;-64
2022/07/05 09:27:48;;;;;;;2.67;2.17;;;;;;;31.66;nan;-24690.22;4930457;28;20208;-64
2022/07/05 09:30:37;;;;;;;4.18;2.60;;;;;;;31.75;nan;-24692.66;4933204;28;20198;-62
2022/07/05 09:33:17;;;;;;;3.08;2.35;;;;;;;31.74;nan;-24692.38;4943212;28;20197;-62
2022/07/05 09:35:54;;;;;;;2.83;2.15;;;;;;;31.68;nan;-24690.75;4930469;28;20689;-64
2022/07/05 09:38:22;;;;;;;3.15;2.35;;;;;;;31.76;nan;-24693.06;4941094;28;20181;-62
2022/07/05 09:40:53;;;;;;;3.92;2.53;;;;;;;31.85;nan;-24695.38;4938954;28;20185;-63
2022/07/05 09:43:21;;;;;;;3.03;2.28;;;;;;;31.76;nan;-24692.94;4935346;28;21481;-64
2022/07/05 09:46:00;;;;;;;3.40;2.47;;;;;;;32.27;nan;-24706.66;4938598;28;20269;-62
2022/07/05 09:48:27;;;;;;;3.22;2.28;;;;;;;31.95;nan;-24698.22;4933968;28;20184;-65
2022/07/05 09:51:04;;;;;;;2.92;2.38;;;;;;;31.84;nan;-24695.09;4944846;28;20307;-62
2022/07/05 09:53:51;;;;;;;3.40;2.70;;;;;;;31.87;nan;-24696.03;4939061;28;20363;-62
2022/07/05 09:56:17;;;;;;;4.03;2.40;;;;;;;32.10;nan;-24702.16;4940132;28;20267;-65
2022/07/05 09:58:44;;;;;;;3.75;2.78;;;;;;;31.96;nan;-24698.50;4935993;28;20186;-60
2022/07/05 10:04:20;;;;;;;2.75;2.47;;;;;;;31.92;nan;-24697.28;4940849;28;20255;-59
2022/07/05 10:06:46;;;;;;;3.97;2.40;;;;;;;26.64;nan;-24554.69;4939588;28;20228;-59
2022/07/05 10:09:13;;;;;;;5.03;2.90;;;;;;;31.69;nan;-24691.03;4944439;28;21111;-60
2022/07/05 10:11:44;;;;;;;6.72;2.85;;;;;;;31.21;nan;-24678.25;4940377;28;20181;-59
2022/07/05 10:14:18;;;;;;;3.13;2.33;;;;;;;31.25;nan;-24679.19;4944323;28;20224;-60
2022/07/05 10:16:47;;;;;;;7.47;2.78;;;;;;;31.75;nan;-24692.78;4943132;28;20224;-60
2022/07/05 10:19:18;;;;;;;4.28;2.67;;;;;;;31.94;nan;-24697.81;4936361;28;20232;-59
2022/07/05 10:21:45;;;;;;;3.15;2.60;;;;;;;32.23;nan;-24705.56;4941028;28;20189;-61
2022/07/05 10:24:11;;;;;;;5.35;2.92;;;;;;;32.19;nan;-24704.59;4944935;28;20616;-59
2022/07/05 10:26:38;;;;;;;3.97;2.65;;;;;;;31.99;nan;-24699.16;4944006;28;20231;-59
2022/07/05 10:29:04;;;;;;;4.05;2.92;;;;;;;31.97;nan;-24698.75;4943042;28;20193;-62
2022/07/05 10:31:30;;;;;;;3.60;2.70;;;;;;;32.27;nan;-24706.78;4944118;28;20180;-60
2022/07/05 10:34:07;;;;;;;3.00;2.38;;;;;;;31.78;nan;-24693.59;4954907;28;20189;-59
2022/07/05 10:36:33;;;;;;;3.20;2.45;;;;;;;32.00;nan;-24699.56;4941219;28;20204;-61
2022/07/05 10:38:59;;;;;;;4.07;2.67;;;;;;;32.42;nan;-24710.72;4936111;28;20205;-59
2022/07/05 10:41:26;;;;;;;3.55;2.60;;;;;;;32.34;nan;-24708.69;4940624;28;20292;-61
2022/07/05 10:43:55;;;;;;;3.75;2.90;;;;;;;31.97;nan;-24698.63;4943223;28;20212;-61
2022/07/05 10:46:43;;;;;;;4.20;2.83;;;;;;;32.27;nan;-24706.66;4943358;28;20205;-60
2022/07/05 10:49:17;;;;;;;6.28;2.92;;;;;;;32.30;nan;-24707.47;4944874;28;20193;-60
2022/07/05 10:51:43;;;;;;;4.20;2.80;;;;;;;32.05;nan;-24700.66;4939426;28;20724;-60
2022/07/05 10:54:09;;;;;;;4.43;3.20;;;;;;;29.62;nan;-24635.31;4942914;28;20185;-60
2022/07/05 10:56:34;;;;;;;3.67;3.00;;;;;;;32.35;nan;-24708.94;4940969;28;20692;-62
2022/07/05 10:59:09;;;;;;;5.47;2.90;;;;;;;32.46;nan;-24711.81;4934777;28;20186;-60
2022/07/05 11:01:37;;;;;;;3.45;2.80;;;;;;;32.38;nan;-24709.63;4945631;28;20184;-61
2022/07/05 11:04:02;;;;;;;3.70;3.10;;;;;;;32.91;nan;-24723.88;4946198;28;20256;-61
2022/07/05 11:06:30;;;;;;;4.43;2.90;;;;;;;32.76;nan;-24719.94;4944578;28;20288;-58
2022/07/05 11:08:59;;;;;;;4.05;2.95;;;;;;;32.78;nan;-24720.34;4938935;28;20181;-59
2022/07/05 11:11:34;;;;;;;3.88;2.85;;;;;;;33.04;nan;-24727.41;4936213;28;20197;-60
2022/07/05 11:14:02;;;;;;;3.20;2.83;;;;;;;33.09;nan;-24728.75;4946151;28;20194;-61
2022/07/05 11:16:31;;;;;;;4.72;3.13;;;;;;;32.75;nan;-24719.53;4939303;28;20173;-58
2022/07/05 11:19:07;;;;;;;4.82;3.40;;;;;;;32.89;nan;-24723.31;4942072;28;20228;-59
2022/07/05 11:21:33;;;;;;;3.28;2.90;;;;;;;32.39;nan;-24709.91;4944502;28;20652;-60
2022/07/05 11:24:18;;;;;;;4.53;2.90;;;;;;;32.90;nan;-24723.47;4934303;28;20182;-61
2022/07/05 11:26:44;;;;;;;4.78;3.25;;;;;;;33.20;nan;-24731.59;4936848;28;20299;-60
2022/07/05 11:29:45;;;;;;;3.35;2.72;;;;;;;32.91;nan;-24723.88;4935622;28;20338;-60
2022/07/05 11:32:13;;;;;;;3.80;3.17;;;;;;;32.84;nan;-24721.97;4937769;28;20364;-61
2022/07/05 11:34:39;;;;;;;9.25;4.32;;;;;;;32.76;nan;-24719.81;4944599;28;20238;-60
2022/07/05 11:37:14;;;;;;;4.07;2.85;;;;;;;32.99;nan;-24726.03;4941471;28;20195;-60
2022/07/05 11:39:43;;;;;;;4.05;3.25;;;;;;;32.88;nan;-24722.94;4943775;28;20677;-60
2022/07/05 11:42:10;;;;;;;4.60;3.30;;;;;;;32.64;nan;-24716.56;4947879;28;20232;-61
2022/07/05 11:44:36;;;;;;;4.40;2.95;;;;;;;32.51;nan;-24713.16;4945158;28;20684;-59
2022/07/05 11:47:03;;;;;;;3.97;2.92;;;;;;;32.46;nan;-24711.66;4944489;28;20211;-61
2022/07/05 11:49:28;;;;;;;4.95;3.25;;;;;;;32.33;nan;-24708.41;4934981;28;20181;-61
2022/07/05 11:52:02;;;;;;;4.03;3.20;;;;;;;32.06;nan;-24701.06;4945890;28;20183;-62
2022/07/05 11:54:33;;;;;;;4.82;3.28;;;;;;;32.23;nan;-24705.69;4942408;28;20199;-60